sensor_id;sensor_type;location;lat;lon;timestamp;pressure;altitude;pressure_sealevel;temperature;humidity
18749;BME280;9503;53.560;10.246;2023-02-13T07:02:36;103041.66;;;5.76;100.00
18749;BME280;9503;53.560;10.246;2023-02-13T07:05:09;103053.38;;;5.83;100.00
18749;BME280;9503;53.560;10.246;2023-02-13T07:07:37;103064.75;;;5.87;100.00
18749;BME280;9503;53.560;10.246;2023-02-13T07:10:12;103060.09;;;5.82;100.00
18749;BME280;9503;53.560;10.246;2023-02-13T07:12:39;103065.28;;;5.91;100.00
18749;BME280;9503;53.560;10.246;2023-02-13T07:15:09;103081.88;;;5.88;100.00
18749;BME280;9503;53.560;10.246;2023-02-13T07:17:46;103077.81;;;5.90;100.00
18749;BME280;9503;53.560;10.246;2023-02-13T07:20:19;103077.59;;;5.95;100.00
18749;BME280;9503;53.560;10.246;2023-02-13T07:22:45;103079.56;;;5.98;100.00
18749;BME280;9503;53.560;10.246;2023-02-13T07:25:14;103087.41;;;6.08;100.00
18749;BME280;9503;53.560;10.246;2023-02-13T07:27:41;103082.34;;;6.17;100.00
18749;BME280;9503;53.560;10.246;2023-02-13T07:30:08;103090.00;;;6.17;100.00
18749;BME280;9503;53.560;10.246;2023-02-13T07:32:39;103094.38;;;6.18;100.00
18749;BME280;9503;53.560;10.246;2023-02-13T07:35:05;103092.69;;;6.43;100.00
18749;BME280;9503;53.560;10.246;2023-02-13T07:37:32;103097.97;;;6.53;100.00
18749;BME280;9503;53.560;10.246;2023-02-13T07:40:01;103103.56;;;6.57;100.00
18749;BME280;9503;53.560;10.246;2023-02-13T07:42:32;103108.66;;;6.57;100.00
18749;BME280;9503;53.560;10.246;2023-02-13T07:44:59;103118.97;;;6.83;100.00
18749;BME280;9503;53.560;10.246;2023-02-13T07:47:25;103124.31;;;6.45;100.00
18749;BME280;9503;53.560;10.246;2023-02-13T07:49:53;103129.00;;;6.49;100.00
18749;BME280;9503;53.560;10.246;2023-02-13T07:52:20;103127.56;;;6.68;100.00
18749;BME280;9503;53.560;10.246;2023-02-13T07:54:49;103134.69;;;6.79;100.00
18749;BME280;9503;53.560;10.246;2023-02-13T07:57:16;103142.19;;;6.78;100.00
18749;BME280;9503;53.560;10.246;2023-02-13T07:59:45;103147.41;;;6.71;100.00
18749;BME280;9503;53.560;10.246;2023-02-13T08:02:13;103145.06;;;6.89;100.00
18749;BME280;9503;53.560;10.246;2023-02-13T08:04:42;103147.38;;;7.04;100.00
18749;BME280;9503;53.560;10.246;2023-02-13T08:07:11;103149.66;;;7.09;100.00
18749;BME280;9503;53.560;10.246;2023-02-13T08:09:38;103150.41;;;7.17;100.00
18749;BME280;9503;53.560;10.246;2023-02-13T08:12:22;103159.31;;;7.29;100.00
18749;BME280;9503;53.560;10.246;2023-02-13T08:14:49;103162.00;;;7.22;100.00
18749;BME280;9503;53.560;10.246;2023-02-13T08:17:15;103172.81;;;7.28;100.00
18749;BME280;9503;53.560;10.246;2023-02-13T08:19:46;103182.06;;;7.10;100.00
18749;BME280;9503;53.560;10.246;2023-02-13T08:22:17;103185.19;;;6.99;100.00
18749;BME280;9503;53.560;10.246;2023-02-13T08:24:47;103179.75;;;6.96;100.00
18749;BME280;9503;53.560;10.246;2023-02-13T08:27:20;103177.81;;;7.02;100.00
18749;BME280;9503;53.560;10.246;2023-02-13T08:29:52;103183.38;;;6.98;100.00
18749;BME280;9503;53.560;10.246;2023-02-13T08:32:20;103181.47;;;7.13;100.00
18749;BME280;9503;53.560;10.246;2023-02-13T08:34:49;103180.75;;;7.23;100.00
18749;BME280;9503;53.560;10.246;2023-02-13T08:37:18;103171.03;;;7.36;100.00
18749;BME280;9503;53.560;10.246;2023-02-13T08:39:44;103181.53;;;7.39;100.00
18749;BME280;9503;53.560;10.246;2023-02-13T08:42:11;103177.59;;;7.25;100.00
18749;BME280;9503;53.560;10.246;2023-02-13T08:44:40;103183.50;;;7.41;100.00
18749;BME280;9503;53.560;10.246;2023-02-13T08:47:14;103183.97;;;7.55;100.00
18749;BME280;9503;53.560;10.246;2023-02-13T08:49:43;103185.94;;;7.66;100.00
18749;BME280;9503;53.560;10.246;2023-02-13T08:52:10;103180.38;;;7.70;100.00
18749;BME280;9503;53.560;10.246;2023-02-13T08:54:38;103191.47;;;7.53;100.00
18749;BME280;9503;53.560;10.246;2023-02-13T08:57:05;103193.56;;;7.48;100.00
18749;BME280;9503;53.560;10.246;2023-02-13T08:59:35;103188.91;;;7.36;100.00
18749;BME280;9503;53.560;10.246;2023-02-13T09:02:02;103197.47;;;7.45;100.00
18749;BME280;9503;53.560;10.246;2023-02-13T09:04:29;103191.91;;;7.40;100.00
18749;BME280;9503;53.560;10.246;2023-02-13T09:06:55;103190.25;;;7.41;100.00
18749;BME280;9503;53.560;10.246;2023-02-13T09:09:23;103178.25;;;7.48;100.00
18749;BME280;9503;53.560;10.246;2023-02-13T09:11:56;103178.72;;;7.70;100.00
18749;BME280;9503;53.560;10.246;2023-02-13T09:14:26;103179.53;;;7.87;100.00
18749;BME280;9503;53.560;10.246;2023-02-13T09:16:57;103186.41;;;7.96;100.00
18749;BME280;9503;53.560;10.246;2023-02-13T09:19:44;103186.56;;;7.81;100.00
18749;BME280;9503;53.560;10.246;2023-02-13T09:22:11;103189.41;;;7.66;100.00
18749;BME280;9503;53.560;10.246;2023-02-13T09:24:41;103195.88;;;7.80;100.00
18749;BME280;9503;53.560;10.246;2023-02-13T09:27:10;103198.16;;;8.03;100.00
18749;BME280;9503;53.560;10.246;2023-02-13T09:29:44;103199.03;;;8.21;100.00
18749;BME280;9503;53.560;10.246;2023-02-13T09:32:11;103207.00;;;8.24;100.00
18749;BME280;9503;53.560;10.246;2023-02-13T09:34:38;103207.75;;;8.31;100.00
18749;BME280;9503;53.560;10.246;2023-02-13T09:37:04;103201.00;;;8.41;100.00
18749;BME280;9503;53.560;10.246;2023-02-13T09:39:31;103209.56;;;8.24;100.00
18749;BME280;9503;53.560;10.246;2023-02-13T09:42:01;103207.59;;;8.21;100.00
18749;BME280;9503;53.560;10.246;2023-02-13T09:44:35;103208.66;;;8.15;100.00
18749;BME280;9503;53.560;10.246;2023-02-13T09:47:12;103211.81;;;8.03;100.00
18749;BME280;9503;53.560;10.246;2023-02-13T09:49:45;103207.91;;;8.07;100.00
18749;BME280;9503;53.560;10.246;2023-02-13T09:52:15;103208.06;;;8.17;100.00
18749;BME280;9503;53.560;10.246;2023-02-13T09:54:42;103202.94;;;8.26;100.00
18749;BME280;9503;53.560;10.246;2023-02-13T09:57:16;103203.41;;;8.30;100.00
18749;BME280;9503;53.560;10.246;2023-02-13T09:59:56;103202.19;;;8.44;100.00
18749;BME280;9503;53.560;10.246;2023-02-13T10:02:46;103202.03;;;8.60;100.00
18749;BME280;9503;53.560;10.246;2023-02-13T10:05:27;103195.25;;;8.52;100.00
18749;BME280;9503;53.560;10.246;2023-02-13T10:08:04;103202.19;;;8.44;100.00
18749;BME280;9503;53.560;10.246;2023-02-13T10:10:45;103199.47;;;8.51;100.00
18749;BME280;9503;53.560;10.246;2023-02-13T10:13:23;103197.06;;;8.44;100.00
18749;BME280;9503;53.560;10.246;2023-02-13T10:16:00;103188.47;;;8.61;100.00
18749;BME280;9503;53.560;10.246;2023-02-13T10:18:38;103185.59;;;8.75;100.00
18749;BME280;9503;53.560;10.246;2023-02-13T10:21:09;103181.78;;;8.89;100.00
18749;BME280;9503;53.560;10.246;2023-02-13T10:23:39;103181.88;;;8.54;100.00
18749;BME280;9503;53.560;10.246;2023-02-13T10:26:11;103180.41;;;8.30;100.00
18749;BME280;9503;53.560;10.246;2023-02-13T10:28:46;103179.47;;;8.21;100.00
18749;BME280;9503;53.560;10.246;2023-02-13T10:31:41;103181.47;;;7.98;100.00
18749;BME280;9503;53.560;10.246;2023-02-13T10:34:25;103177.81;;;8.22;100.00
18749;BME280;9503;53.560;10.246;2023-02-13T10:37:00;103193.94;;;8.47;100.00
18749;BME280;9503;53.560;10.246;2023-02-13T10:39:31;103196.31;;;8.28;100.00
18749;BME280;9503;53.560;10.246;2023-02-13T10:42:06;103187.97;;;8.74;100.00
18749;BME280;9503;53.560;10.246;2023-02-13T10:44:49;103186.84;;;8.98;100.00
18749;BME280;9503;53.560;10.246;2023-02-13T10:47:34;103194.38;;;8.96;100.00
18749;BME280;9503;53.560;10.246;2023-02-13T10:50:28;103191.69;;;9.22;100.00
18749;BME280;9503;53.560;10.246;2023-02-13T10:53:07;103189.41;;;9.25;100.00
18749;BME280;9503;53.560;10.246;2023-02-13T10:58:53;103180.78;;;9.06;100.00
18749;BME280;9503;53.560;10.246;2023-02-13T11:01:26;103186.63;;;9.13;100.00
18749;BME280;9503;53.560;10.246;2023-02-13T11:04:05;103191.78;;;9.32;100.00
18749;BME280;9503;53.560;10.246;2023-02-13T11:06:53;103189.78;;;9.66;100.00
18749;BME280;9503;53.560;10.246;2023-02-13T11:09:23;103195.28;;;9.52;100.00
18749;BME280;9503;53.560;10.246;2023-02-13T11:11:50;103189.28;;;9.51;100.00
18749;BME280;9503;53.560;10.246;2023-02-13T11:14:19;103189.06;;;9.58;100.00
18749;BME280;9503;53.560;10.246;2023-02-13T11:16:54;103187.38;;;9.12;100.00
18749;BME280;9503;53.560;10.246;2023-02-13T11:19:27;103180.28;;;8.82;100.00
18749;BME280;9503;53.560;10.246;2023-02-13T11:21:58;103170.19;;;8.84;100.00
18749;BME280;9503;53.560;10.246;2023-02-13T11:24:27;103172.69;;;9.01;100.00
18749;BME280;9503;53.560;10.246;2023-02-13T11:26:59;103172.22;;;9.33;100.00
18749;BME280;9503;53.560;10.246;2023-02-13T11:29:29;103161.56;;;9.28;100.00
18749;BME280;9503;53.560;10.246;2023-02-13T11:32:06;103170.53;;;9.80;100.00
18749;BME280;9503;53.560;10.246;2023-02-13T11:34:42;103169.66;;;9.33;100.00
18749;BME280;9503;53.560;10.246;2023-02-13T11:37:17;103165.78;;;9.47;100.00
18749;BME280;9503;53.560;10.246;2023-02-13T11:39:49;103167.41;;;9.74;100.00
18749;BME280;9503;53.560;10.246;2023-02-13T11:42:25;103171.41;;;9.43;100.00
18749;BME280;9503;53.560;10.246;2023-02-13T11:44:56;103177.16;;;9.12;100.00
18749;BME280;9503;53.560;10.246;2023-02-13T11:47:38;103171.56;;;9.63;100.00
18749;BME280;9503;53.560;10.246;2023-02-13T11:50:20;103170.19;;;9.85;100.00
18749;BME280;9503;53.560;10.246;2023-02-13T11:52:56;103174.91;;;9.81;100.00
18749;BME280;9503;53.560;10.246;2023-02-13T11:55:27;103170.69;;;9.62;100.00
18749;BME280;9503;53.560;10.246;2023-02-13T11:57:56;103164.63;;;9.43;100.00
18749;BME280;9503;53.560;10.246;2023-02-13T12:00:29;103155.19;;;9.06;100.00
18749;BME280;9503;53.560;10.246;2023-02-13T12:02:58;103158.84;;;9.27;100.00
18749;BME280;9503;53.560;10.246;2023-02-13T12:05:27;103158.53;;;9.05;100.00
18749;BME280;9503;53.560;10.246;2023-02-13T12:07:58;103157.56;;;9.13;100.00
18749;BME280;9503;53.560;10.246;2023-02-13T12:10:27;103158.84;;;9.27;100.00
18749;BME280;9503;53.560;10.246;2023-02-13T12:12:56;103155.59;;;9.10;100.00
18749;BME280;9503;53.560;10.246;2023-02-13T12:15:25;103150.03;;;9.14;100.00
18749;BME280;9503;53.560;10.246;2023-02-13T12:18:02;103147.16;;;9.20;100.00
18749;BME280;9503;53.560;10.246;2023-02-13T12:20:39;103148.44;;;9.34;100.00
18749;BME280;9503;53.560;10.246;2023-02-13T12:23:18;103147.63;;;9.16;100.00
18749;BME280;9503;53.560;10.246;2023-02-13T12:26:09;103152.16;;;8.82;100.00
18749;BME280;9503;53.560;10.246;2023-02-13T12:28:55;103153.94;;;9.38;100.00
18749;BME280;9503;53.560;10.246;2023-02-13T12:31:37;103141.59;;;9.16;100.00
18749;BME280;9503;53.560;10.246;2023-02-13T12:34:31;103139.47;;;9.20;100.00
18749;BME280;9503;53.560;10.246;2023-02-13T12:37:17;103134.63;;;9.23;100.00
18749;BME280;9503;53.560;10.246;2023-02-13T12:39:57;103136.59;;;9.17;100.00
18749;BME280;9503;53.560;10.246;2023-02-13T12:42:34;103133.47;;;9.20;100.00
18749;BME280;9503;53.560;10.246;2023-02-13T12:45:21;103127.13;;;9.16;100.00
18749;BME280;9503;53.560;10.246;2023-02-13T12:48:03;103130.78;;;9.37;100.00
18749;BME280;9503;53.560;10.246;2023-02-13T12:50:57;103136.53;;;9.34;100.00
18749;BME280;9503;53.560;10.246;2023-02-13T12:53:44;103141.72;;;9.26;100.00
18749;BME280;9503;53.560;10.246;2023-02-13T12:56:39;103142.00;;;9.48;100.00
18749;BME280;9503;53.560;10.246;2023-02-13T12:59:14;103133.00;;;9.43;100.00
18749;BME280;9503;53.560;10.246;2023-02-13T13:02:30;103129.00;;;9.55;100.00
18749;BME280;9503;53.560;10.246;2023-02-13T13:05:13;103130.22;;;9.31;100.00
18749;BME280;9503;53.560;10.246;2023-02-13T13:07:57;103133.59;;;9.40;100.00
18749;BME280;9503;53.560;10.246;2023-02-13T13:10:42;103137.72;;;9.57;100.00
18749;BME280;9503;53.560;10.246;2023-02-13T13:13:23;103130.06;;;9.29;100.00
18749;BME280;9503;53.560;10.246;2023-02-13T13:15:58;103129.56;;;9.14;100.00
18749;BME280;9503;53.560;10.246;2023-02-13T13:18:40;103123.72;;;8.79;100.00
18749;BME280;9503;53.560;10.246;2023-02-13T13:21:29;103131.69;;;9.10;100.00
18749;BME280;9503;53.560;10.246;2023-02-13T13:24:03;103119.56;;;8.99;100.00
18749;BME280;9503;53.560;10.246;2023-02-13T13:26:35;103125.53;;;9.08;100.00
18749;BME280;9503;53.560;10.246;2023-02-13T13:29:06;103120.53;;;9.09;100.00
18749;BME280;9503;53.560;10.246;2023-02-13T13:31:36;103115.34;;;8.99;100.00
18749;BME280;9503;53.560;10.246;2023-02-13T13:34:05;103117.84;;;8.80;100.00
18749;BME280;9503;53.560;10.246;2023-02-13T13:36:39;103113.47;;;8.79;100.00
18749;BME280;9503;53.560;10.246;2023-02-13T13:39:18;103117.00;;;8.99;100.00
18749;BME280;9503;53.560;10.246;2023-02-13T13:41:55;103105.53;;;8.76;100.00
18749;BME280;9503;53.560;10.246;2023-02-13T13:44:45;103113.34;;;8.78;100.00
18749;BME280;9503;53.560;10.246;2023-02-13T13:47:23;103112.97;;;8.92;100.00
18749;BME280;9503;53.560;10.246;2023-02-13T13:49:52;103111.66;;;9.14;100.00
18749;BME280;9503;53.560;10.246;2023-02-13T13:52:23;103116.16;;;8.90;100.00
18749;BME280;9503;53.560;10.246;2023-02-13T13:54:50;103117.41;;;9.12;100.00
18749;BME280;9503;53.560;10.246;2023-02-13T13:57:22;103117.84;;;9.08;100.00
18749;BME280;9503;53.560;10.246;2023-02-13T14:00:21;103113.75;;;9.10;100.00
18749;BME280;9503;53.560;10.246;2023-02-13T14:02:49;103124.72;;;9.18;100.00
18749;BME280;9503;53.560;10.246;2023-02-13T14:05:22;103116.19;;;9.08;100.00
18749;BME280;9503;53.560;10.246;2023-02-13T14:07:51;103117.44;;;9.03;100.00
18749;BME280;9503;53.560;10.246;2023-02-13T14:11:00;103116.03;;;8.79;100.00
18749;BME280;9503;53.560;10.246;2023-02-13T14:13:31;103113.69;;;9.00;100.00
18749;BME280;9503;53.560;10.246;2023-02-13T14:15:58;103121.75;;;8.85;100.00
18749;BME280;9503;53.560;10.246;2023-02-13T14:18:25;103116.22;;;8.72;100.00
18749;BME280;9503;53.560;10.246;2023-02-13T14:20:55;103116.22;;;8.72;100.00
18749;BME280;9503;53.560;10.246;2023-02-13T14:23:29;103112.19;;;8.74;100.00
18749;BME280;9503;53.560;10.246;2023-02-13T14:26:31;103111.81;;;8.80;100.00
18749;BME280;9503;53.560;10.246;2023-02-13T14:29:25;103116.50;;;9.03;100.00
18749;BME280;9503;53.560;10.246;2023-02-13T14:31:59;103123.28;;;9.02;100.00
18749;BME280;9503;53.560;10.246;2023-02-13T14:34:29;103119.06;;;9.03;100.00
18749;BME280;9503;53.560;10.246;2023-02-13T14:37:12;103122.88;;;8.98;100.00
18749;BME280;9503;53.560;10.246;2023-02-13T14:40:12;103113.06;;;9.02;100.00
18749;BME280;9503;53.560;10.246;2023-02-13T14:42:54;103121.19;;;9.07;100.00
18749;BME280;9503;53.560;10.246;2023-02-13T14:45:24;103113.56;;;8.98;100.00
18749;BME280;9503;53.560;10.246;2023-02-13T14:47:54;103113.34;;;8.78;100.00
18749;BME280;9503;53.560;10.246;2023-02-13T14:50:24;103115.09;;;8.51;100.00
18749;BME280;9503;53.560;10.246;2023-02-13T14:52:53;103110.69;;;8.68;100.00
18749;BME280;9503;53.560;10.246;2023-02-13T14:55:30;103111.94;;;8.54;100.00
18749;BME280;9503;53.560;10.246;2023-02-13T14:58:05;103106.53;;;8.60;100.00
18749;BME280;9503;53.560;10.246;2023-02-13T15:00:38;103100.28;;;8.66;100.00
18749;BME280;9503;53.560;10.246;2023-02-13T15:03:22;103095.81;;;8.64;100.00
18749;BME280;9503;53.560;10.246;2023-02-13T15:05:52;103097.97;;;8.50;100.00
18749;BME280;9503;53.560;10.246;2023-02-13T15:08:21;103102.22;;;8.32;100.00
18749;BME280;9503;53.560;10.246;2023-02-13T15:10:52;103099.19;;;8.28;100.00
18749;BME280;9503;53.560;10.246;2023-02-13T15:13:21;103101.94;;;8.38;100.00
18749;BME280;9503;53.560;10.246;2023-02-13T15:15:54;103096.06;;;8.39;100.00
18749;BME280;9503;53.560;10.246;2023-02-13T15:18:24;103095.09;;;8.56;100.00
18749;BME280;9503;53.560;10.246;2023-02-13T15:20:53;103093.13;;;8.62;100.00
18749;BME280;9503;53.560;10.246;2023-02-13T15:23:23;103091.91;;;8.67;100.00
18749;BME280;9503;53.560;10.246;2023-02-13T15:25:56;103094.28;;;8.74;100.00
18749;BME280;9503;53.560;10.246;2023-02-13T15:28:23;103095.13;;;8.83;100.00
18749;BME280;9503;53.560;10.246;2023-02-13T15:30:57;103094.53;;;8.77;100.00
18749;BME280;9503;53.560;10.246;2023-02-13T15:33:26;103090.72;;;8.55;100.00
18749;BME280;9503;53.560;10.246;2023-02-13T15:35:55;103082.13;;;8.63;100.00
18749;BME280;9503;53.560;10.246;2023-02-13T15:38:26;103082.34;;;8.47;100.00
18749;BME280;9503;53.560;10.246;2023-02-13T15:40:57;103086.25;;;8.44;100.00
18749;BME280;9503;53.560;10.246;2023-02-13T15:43:31;103084.31;;;8.32;100.00
18749;BME280;9503;53.560;10.246;2023-02-13T15:46:02;103073.28;;;8.51;100.00
18749;BME280;9503;53.560;10.246;2023-02-13T15:48:32;103073.06;;;8.22;100.00
18749;BME280;9503;53.560;10.246;2023-02-13T15:51:01;103078.16;;;8.30;100.00
18749;BME280;9503;53.560;10.246;2023-02-13T15:53:28;103074.41;;;8.27;100.00
18749;BME280;9503;53.560;10.246;2023-02-13T15:55:58;103074.88;;;8.23;100.00
18749;BME280;9503;53.560;10.246;2023-02-13T15:58:28;103073.69;;;8.11;100.00
18749;BME280;9503;53.560;10.246;2023-02-13T16:01:00;103068.91;;;8.05;100.00
18749;BME280;9503;53.560;10.246;2023-02-13T16:03:29;103063.16;;;8.25;100.00
18749;BME280;9503;53.560;10.246;2023-02-13T16:05:57;103058.31;;;8.28;100.00
18749;BME280;9503;53.560;10.246;2023-02-13T16:08:27;103058.16;;;8.26;100.00
18749;BME280;9503;53.560;10.246;2023-02-13T16:11:23;103061.03;;;8.21;100.00
18749;BME280;9503;53.560;10.246;2023-02-13T16:14:04;103061.44;;;7.81;100.00
18749;BME280;9503;53.560;10.246;2023-02-13T16:16:35;103057.03;;;8.06;100.00
18749;BME280;9503;53.560;10.246;2023-02-13T16:19:21;103065.56;;;8.23;100.00
18749;BME280;9503;53.560;10.246;2023-02-13T16:21:49;103067.81;;;8.38;100.00
18749;BME280;9503;53.560;10.246;2023-02-13T16:24:17;103056.91;;;8.49;100.00
18749;BME280;9503;53.560;10.246;2023-02-13T16:26:44;103057.25;;;8.35;100.00
18749;BME280;9503;53.560;10.246;2023-02-13T16:29:17;103061.00;;;8.29;100.00
18749;BME280;9503;53.560;10.246;2023-02-13T16:31:46;103056.56;;;8.18;100.00
18749;BME280;9503;53.560;10.246;2023-02-13T16:34:21;103055.19;;;8.13;100.00
18749;BME280;9503;53.560;10.246;2023-02-13T16:36:49;103063.41;;;8.37;100.00
18749;BME280;9503;53.560;10.246;2023-02-13T16:39:19;103064.13;;;8.44;100.00
18749;BME280;9503;53.560;10.246;2023-02-13T16:41:51;103057.28;;;8.26;100.00
18749;BME280;9503;53.560;10.246;2023-02-13T16:44:22;103060.56;;;8.34;100.00
18749;BME280;9503;53.560;10.246;2023-02-13T16:46:52;103073.78;;;8.29;100.00
18749;BME280;9503;53.560;10.246;2023-02-13T16:49:21;103059.50;;;8.40;100.00
18749;BME280;9503;53.560;10.246;2023-02-13T16:51:51;103061.75;;;8.28;100.00
18749;BME280;9503;53.560;10.246;2023-02-13T16:54:24;103061.19;;;8.22;100.00
18749;BME280;9503;53.560;10.246;2023-02-13T16:56:53;103068.53;;;8.28;100.00
18749;BME280;9503;53.560;10.246;2023-02-13T16:59:24;103070.13;;;7.91;100.00
18749;BME280;9503;53.560;10.246;2023-02-13T17:02:16;103066.97;;;7.85;100.00
18749;BME280;9503;53.560;10.246;2023-02-13T17:04:45;103064.91;;;7.81;100.00
18749;BME280;9503;53.560;10.246;2023-02-13T17:07:14;103075.88;;;7.80;100.00
18749;BME280;9503;53.560;10.246;2023-02-13T17:09:42;103074.22;;;7.81;100.00
18749;BME280;9503;53.560;10.246;2023-02-13T17:12:13;103078.69;;;7.83;100.00
18749;BME280;9503;53.560;10.246;2023-02-13T17:14:41;103083.97;;;7.67;100.00
18749;BME280;9503;53.560;10.246;2023-02-13T17:17:12;103069.84;;;7.62;100.00
18749;BME280;9503;53.560;10.246;2023-02-13T17:19:40;103067.31;;;7.62;100.00
18749;BME280;9503;53.560;10.246;2023-02-13T17:22:06;103072.25;;;7.61;100.00
18749;BME280;9503;53.560;10.246;2023-02-13T17:24:33;103083.84;;;7.57;100.00
18749;BME280;9503;53.560;10.246;2023-02-13T17:27:00;103082.00;;;7.56;100.00
18749;BME280;9503;53.560;10.246;2023-02-13T17:29:26;103086.69;;;7.60;100.00
18749;BME280;9503;53.560;10.246;2023-02-13T17:31:54;103083.97;;;7.59;100.00
18749;BME280;9503;53.560;10.246;2023-02-13T17:34:21;103078.88;;;7.67;100.00
18749;BME280;9503;53.560;10.246;2023-02-13T17:36:49;103081.84;;;7.63;100.00
18749;BME280;9503;53.560;10.246;2023-02-13T17:39:16;103071.81;;;7.47;100.00
18749;BME280;9503;53.560;10.246;2023-02-13T17:41:43;103074.50;;;7.32;100.00
18749;BME280;9503;53.560;10.246;2023-02-13T17:44:11;103077.06;;;7.40;100.00
18749;BME280;9503;53.560;10.246;2023-02-13T17:46:38;103070.63;;;7.44;100.00
18749;BME280;9503;53.560;10.246;2023-02-13T17:49:05;103075.88;;;7.45;100.00
18749;BME280;9503;53.560;10.246;2023-02-13T17:51:31;103075.44;;;7.58;100.00
18749;BME280;9503;53.560;10.246;2023-02-13T17:53:59;103079.78;;;7.59;100.00
18749;BME280;9503;53.560;10.246;2023-02-13T17:56:26;103081.88;;;7.46;100.00
18749;BME280;9503;53.560;10.246;2023-02-13T17:58:53;103076.19;;;7.66;100.00
